ADDS METAR Data

Data at: 0744 UTC 24 Oct 2017

METAR for:KBGR (Bangor Intl Arpt, ME, US)
Text:KBGR 240653Z 17006KT 3/4SM R15/4000V5000FT BR OVC002 14/14 A3016 RMK AO2 SLP210 T01440139
Temperature: 14.4°C ( 58°F)
Dewpoint: 13.9°C ( 57°F) [RH = 97%]
Pressure (altimeter):30.16 inches Hg (1021.4 mb) [Sea level pressure: 1021.0 mb]
Winds:from the S (170 degrees) at 7 MPH (6 knots; 3.1 m/s)
Visibility: 0.75 sm ( 1.21 km)
Ceiling:200 feet AGL
Clouds: overcast cloud deck at 200 feet AGL
Weather:BR (mist)